Terminal Aerodrome Forecast
Issued by NWS

Home | Current Version | Previous Version | Text Only | Print | Product List | Glossary On
Versions: 1 2 3 4 5 6 7 8 9 10 11 12 13 14
000
FTAK31 PAJN 241135
TAFAKT
TAF
PAKT 241135Z 2412/2512 12013KT 6SM -RA BR SCT006 OVC015
      TEMPO 2412/2415 4SM -SHRA BR SCT004 BKN006 OVC010
     FM241500 14010KT 6SM -SHRA BR OVC015
     FM241800 14008KT P6SM VCSH SCT015 BKN025 OVC035
     FM250300 14005KT 4SM -RA BR SCT005 BKN015 OVC025
      AMD LTD TO CLD VIS AND WIND 2412/2415=

USA.gov is the U.S. government's official web portal to all federal, state and local government web resources and services.